Time;durP1;ratioP1;P1;durP2;ratioP2;P2;SDS_P1;SDS_P2;PMS_P1;PMS_P2;Temp;Humidity;BMP_temperature;BMP_pressure;BME280_temperature;BME280_humidity;BME280_pressure;Samples;Min_cycle;Max_cycle;Signal;HPM_P1;HPM_P2
2021/03/02 00:02:14;;;;;;;6.53;2.92;;;5.70;45.80;;;;;;2563900;53;21015;-67
2021/03/02 00:04:44;;;;;;;5.45;3.08;;;5.70;45.80;;;;;;2341688;54;20922;-65
2021/03/02 00:07:12;;;;;;;6.57;3.10;;;5.70;46.10;;;;;;2343794;54;20992;-67
2021/03/02 00:09:38;;;;;;;6.20;3.10;;;5.60;46.00;;;;;;2343922;54;21010;-64
2021/03/02 00:12:15;;;;;;;5.80;2.80;;;5.60;46.20;;;;;;2342731;54;20974;-68
2021/03/02 00:14:41;;;;;;;4.93;2.45;;;5.60;46.20;;;;;;2324499;54;21041;-68
2021/03/02 00:17:13;;;;;;;6.93;2.85;;;5.60;46.20;;;;;;2332858;53;20992;-65
2021/03/02 00:23:15;;;;;;;8.77;3.35;;;5.50;46.20;;;;;;2323540;54;20954;-68
2021/03/02 00:25:42;;;;;;;6.78;3.12;;;5.50;46.70;;;;;;2331077;54;20915;-65
2021/03/02 00:28:09;;;;;;;5.80;2.70;;;5.50;45.90;;;;;;2336960;54;20985;-65
2021/03/02 00:30:37;;;;;;;5.55;2.83;;;5.50;46.00;;;;;;2571254;53;20950;-69
2021/03/02 00:33:05;;;;;;;5.07;2.35;;;5.40;46.00;;;;;;2569456;53;21002;-68
2021/03/02 00:35:33;;;;;;;5.50;2.78;;;5.40;46.10;;;;;;2572158;53;20951;-68
2021/03/02 00:37:59;;;;;;;6.18;3.08;;;5.40;46.00;;;;;;2589791;53;20977;-67
2021/03/02 00:40:26;;;;;;;8.70;3.28;;;5.40;46.10;;;;;;2341333;54;21016;-65
2021/03/02 00:42:53;;;;;;;6.05;3.12;;;5.30;46.20;;;;;;2319526;54;20986;-68
2021/03/02 00:45:19;;;;;;;8.05;3.33;;;5.30;46.20;;;;;;2332147;54;20975;-67
2021/03/02 00:47:46;;;;;;;7.70;3.00;;;5.30;46.20;;;;;;2324076;54;20991;-67
2021/03/02 00:50:16;;;;;;;7.35;3.60;;;5.30;46.20;;;;;;2343542;54;20978;-65
2021/03/02 00:52:43;;;;;;;7.30;3.08;;;5.20;46.20;;;;;;2344132;54;20951;-66
2021/03/02 00:55:10;;;;;;;6.10;2.90;;;5.20;46.10;;;;;;2343880;54;20988;-67
2021/03/02 00:57:37;;;;;;;6.72;2.97;;;5.20;46.20;;;;;;2590721;53;20946;-65
2021/03/02 01:00:05;;;;;;;6.68;3.00;;;5.10;46.20;;;;;;2343262;54;21037;-65
2021/03/02 01:02:31;;;;;;;5.25;2.70;;;5.10;46.20;;;;;;2590286;53;20939;-67
2021/03/02 01:04:59;;;;;;;6.65;3.03;;;5.10;46.20;;;;;;2343819;54;20986;-66
2021/03/02 01:07:25;;;;;;;6.93;3.65;;;5.10;46.80;;;;;;2344411;54;20955;-66
2021/03/02 01:09:52;;;;;;;7.82;3.17;;;5.00;46.10;;;;;;2331595;54;20906;-65
2021/03/02 01:12:18;;;;;;;6.60;2.87;;;5.00;46.20;;;;;;2336328;54;20950;-66
2021/03/02 01:14:46;;;;;;;5.82;2.72;;;5.00;46.20;;;;;;2331449;54;20973;-67
2021/03/02 01:17:12;;;;;;;7.35;3.15;;;5.00;46.20;;;;;;2320220;54;20949;-66
2021/03/02 01:19:39;;;;;;;5.95;3.00;;;4.90;46.20;;;;;;2339352;54;20991;-65
2021/03/02 01:22:05;;;;;;;5.85;2.87;;;4.90;46.20;;;;;;2589711;53;21078;-70
2021/03/02 01:24:31;;;;;;;5.18;2.78;;;4.90;46.30;;;;;;2343122;54;20955;-69
2021/03/02 01:26:58;;;;;;;6.35;3.20;;;4.80;46.30;;;;;;2348240;54;20907;-67
2021/03/02 01:29:24;;;;;;;4.50;2.17;;;4.80;46.30;;;;;;2556314;53;21057;-67
2021/03/02 01:31:51;;;;;;;6.05;2.90;;;4.80;46.40;;;;;;2565213;53;21830;-67
2021/03/02 01:34:18;;;;;;;7.05;3.17;;;4.80;46.40;;;;;;2335718;54;20934;-69
2021/03/02 01:36:45;;;;;;;5.90;2.80;;;4.70;46.40;;;;;;2344582;54;20955;-66
2021/03/02 01:39:12;;;;;;;4.45;2.30;;;4.70;46.50;;;;;;2343537;54;20945;-66
2021/03/02 01:41:43;;;;;;;5.25;2.42;;;4.70;46.50;;;;;;2589593;53;21416;-68
2021/03/02 01:44:10;;;;;;;6.25;2.85;;;4.70;46.50;;;;;;2343067;54;21667;-69
2021/03/02 01:46:36;;;;;;;5.78;2.80;;;4.60;46.40;;;;;;2338975;54;20954;-67
2021/03/02 01:49:03;;;;;;;5.80;2.58;;;4.60;46.50;;;;;;2323325;54;20958;-65
2021/03/02 01:51:29;;;;;;;4.90;2.40;;;4.60;46.50;;;;;;2569932;53;20919;-66
2021/03/02 01:53:56;;;;;;;7.47;3.00;;;4.60;46.50;;;;;;2561870;53;20939;-68
2021/03/02 01:56:22;;;;;;;5.45;2.72;;;4.50;46.50;;;;;;2577923;53;20962;-65
2021/03/02 01:58:48;;;;;;;5.97;2.80;;;4.60;46.60;;;;;;2574775;53;20997;-65
2021/03/02 02:01:16;;;;;;;7.50;2.60;;;4.50;46.60;;;;;;2589161;53;20910;-64
2021/03/02 02:03:51;;;;;;;5.10;2.40;;;4.50;46.70;;;;;;2323623;54;21319;-69
2021/03/02 02:07:18;;;;;;;4.53;2.40;;;4.50;47.30;;;;;;2344995;54;20938;-66
2021/03/02 02:10:31;;;;;;;6.43;2.70;;;4.40;47.10;;;;;;2339067;54;21050;-68
2021/03/02 02:13:09;;;;;;;6.35;2.90;;;4.40;47.00;;;;;;2324141;54;20938;-67
2021/03/02 02:15:37;;;;;;;7.20;2.95;;;4.40;46.60;;;;;;2567881;53;20974;-65
2021/03/02 02:18:11;;;;;;;7.68;3.35;;;4.40;46.60;;;;;;2338916;54;20938;-67
2021/03/02 02:23:35;;;;;;;5.60;2.67;;;4.30;46.60;;;;;;2343539;54;20939;-69
2021/03/02 02:26:36;;;;;;;6.35;2.70;;;4.30;47.00;;;;;;2323861;55;21018;-67
2021/03/02 02:29:03;;;;;;;6.60;2.70;;;4.30;46.90;;;;;;2324047;55;20978;-67
2021/03/02 02:31:29;;;;;;;5.53;2.60;;;4.20;46.60;;;;;;2344486;54;20998;-68
2021/03/02 02:33:56;;;;;;;8.30;3.50;;;4.20;46.70;;;;;;2323766;54;20990;-66
2021/03/02 02:36:22;;;;;;;5.43;2.72;;;4.20;46.80;;;;;;2590444;53;20931;-68
2021/03/02 02:38:50;;;;;;;8.70;3.08;;;4.20;47.10;;;;;;2581527;53;20954;-67
2021/03/02 02:41:18;;;;;;;6.85;3.47;;;4.20;47.10;;;;;;2572468;53;21451;-67
2021/03/02 02:43:44;;;;;;;6.93;3.10;;;4.20;47.20;;;;;;2581948;53;20971;-69
2021/03/02 02:46:12;;;;;;;6.93;3.08;;;4.10;47.10;;;;;;2325251;54;21723;-68
2021/03/02 02:48:39;;;;;;;6.55;3.05;;;4.10;47.20;;;;;;2569181;53;20938;-66
2021/03/02 02:51:05;;;;;;;7.05;3.15;;;4.10;47.20;;;;;;2344482;54;20927;-67
2021/03/02 02:53:31;;;;;;;7.28;2.70;;;4.10;47.20;;;;;;2332050;54;20994;-69
2021/03/02 02:55:59;;;;;;;5.62;2.70;;;4.00;47.10;;;;;;2580838;53;20935;-66
2021/03/02 02:58:30;;;;;;;5.82;2.58;;;4.00;47.10;;;;;;2343054;54;20962;-68
2021/03/02 03:01:00;;;;;;;4.90;2.60;;;4.00;47.10;;;;;;2590492;53;20927;-66
2021/03/02 03:03:29;;;;;;;9.48;2.75;;;4.00;47.10;;;;;;2590249;53;20946;-68
2021/03/02 03:05:56;;;;;;;8.15;3.90;;;4.00;47.20;;;;;;2589719;53;20923;-68
2021/03/02 03:08:24;;;;;;;8.43;3.70;;;4.00;47.20;;;;;;2343825;54;20946;-68
2021/03/02 03:10:51;;;;;;;8.75;4.40;;;4.00;47.20;;;;;;2589847;53;21829;-66
2021/03/02 03:13:18;;;;;;;8.70;4.10;;;4.00;47.20;;;;;;2335053;54;20926;-68
2021/03/02 03:15:46;;;;;;;7.70;3.40;;;3.90;47.20;;;;;;2577751;53;20950;-65
2021/03/02 03:18:12;;;;;;;8.27;3.47;;;3.90;47.40;;;;;;2590745;53;21007;-67
2021/03/02 03:20:40;;;;;;;8.77;3.30;;;3.90;47.50;;;;;;2343962;54;20962;-66
2021/03/02 03:23:06;;;;;;;6.05;2.80;;;3.90;47.50;;;;;;2325029;54;21775;-69
2021/03/02 03:25:34;;;;;;;10.95;4.40;;;3.90;47.40;;;;;;2571964;53;20970;-67
2021/03/02 03:28:02;;;;;;;7.87;3.90;;;3.90;47.50;;;;;;2581557;53;21026;-66
2021/03/02 03:30:31;;;;;;;8.25;3.87;;;3.90;47.60;;;;;;2563307;53;20918;-65
2021/03/02 03:32:58;;;;;;;10.10;3.95;;;3.80;47.40;;;;;;2572652;53;20938;-65
2021/03/02 03:35:27;;;;;;;11.27;4.00;;;3.80;47.50;;;;;;2336588;54;20934;-66
2021/03/02 03:37:53;;;;;;;7.35;3.50;;;3.80;47.50;;;;;;2344039;54;20923;-68
2021/03/02 03:40:21;;;;;;;11.00;3.70;;;3.80;47.40;;;;;;2343846;54;20919;-67
2021/03/02 03:42:47;;;;;;;8.95;4.05;;;3.80;47.50;;;;;;2344149;54;20942;-67
2021/03/02 03:45:14;;;;;;;7.78;3.60;;;3.70;47.40;;;;;;2590924;53;20970;-66
2021/03/02 03:47:41;;;;;;;9.68;4.10;;;3.70;47.50;;;;;;2344469;54;20943;-66
2021/03/02 03:50:07;;;;;;;7.78;3.50;;;3.70;47.50;;;;;;2324517;55;20998;-66
2021/03/02 03:52:34;;;;;;;8.48;3.80;;;3.70;47.50;;;;;;2344283;54;20966;-66
2021/03/02 03:55:01;;;;;;;9.43;3.75;;;3.70;47.50;;;;;;2327644;54;21073;-67
2021/03/02 03:57:27;;;;;;;7.95;3.83;;;3.70;47.50;;;;;;2342340;54;20950;-67
2021/03/02 03:59:53;;;;;;;9.02;4.32;;;3.70;47.50;;;;;;2343934;54;20978;-66
2021/03/02 04:02:20;;;;;;;7.80;2.83;;;3.70;47.60;;;;;;2344352;54;21025;-68
2021/03/02 04:04:46;;;;;;;6.85;3.05;;;3.60;47.60;;;;;;2590800;53;21010;-69
2021/03/02 04:07:17;;;;;;;8.73;3.67;;;3.60;47.50;;;;;;2590909;53;21472;-65
2021/03/02 04:09:44;;;;;;;8.23;3.70;;;3.60;47.50;;;;;;2589569;53;20982;-67
2021/03/02 04:12:10;;;;;;;8.68;3.55;;;3.60;47.60;;;;;;2344026;54;20939;-68
2021/03/02 04:14:37;;;;;;;7.50;3.22;;;3.60;47.60;;;;;;2577880;53;20979;-67
2021/03/02 04:17:03;;;;;;;6.82;3.30;;;3.50;47.50;;;;;;2332135;54;21005;-64
2021/03/02 04:19:30;;;;;;;7.18;3.08;;;3.50;47.50;;;;;;2583336;53;20975;-68
2021/03/02 04:21:56;;;;;;;6.62;2.83;;;3.50;47.50;;;;;;2325710;54;21748;-65
2021/03/02 04:24:22;;;;;;;8.65;3.42;;;3.50;48.10;;;;;;2565623;53;21472;-65
2021/03/02 04:26:49;;;;;;;6.30;2.95;;;3.50;47.60;;;;;;2344008;54;21813;-69
2021/03/02 04:29:15;;;;;;;8.93;4.03;;;3.50;47.60;;;;;;2325998;54;20958;-66
2021/03/02 04:31:41;;;;;;;8.27;3.33;;;3.40;47.60;;;;;;2324312;54;20965;-67
2021/03/02 04:34:08;;;;;;;7.82;3.03;;;3.40;47.70;;;;;;2324510;54;20974;-67
2021/03/02 04:36:34;;;;;;;7.60;3.55;;;3.40;47.70;;;;;;2342161;54;20930;-66
2021/03/02 04:39:01;;;;;;;7.97;3.42;;;3.40;47.70;;;;;;2343706;54;21301;-64
2021/03/02 04:41:29;;;;;;;7.35;3.10;;;3.40;47.80;;;;;;2344066;54;20970;-66
2021/03/02 04:43:55;;;;;;;8.90;3.90;;;3.40;47.80;;;;;;2589641;53;21471;-67
2021/03/02 04:46:22;;;;;;;6.82;2.97;;;3.30;47.70;;;;;;2344451;54;21005;-66
2021/03/02 04:48:48;;;;;;;8.88;3.72;;;3.30;47.80;;;;;;2590685;53;20998;-68
2021/03/02 04:51:15;;;;;;;7.12;2.97;;;3.30;47.80;;;;;;2558098;53;20931;-66
2021/03/02 04:53:41;;;;;;;4.32;2.12;;;3.30;48.00;;;;;;2570986;53;21025;-67
2021/03/02 04:56:07;;;;;;;8.38;3.08;;;3.30;47.90;;;;;;2567386;53;20983;-66
2021/03/02 04:58:34;;;;;;;6.03;2.87;;;3.30;47.90;;;;;;2589434;53;21009;-66
2021/03/02 05:01:01;;;;;;;8.30;2.70;;;3.30;47.90;;;;;;2580193;53;21423;-66
2021/03/02 05:03:29;;;;;;;9.38;3.72;;;3.20;47.90;;;;;;2571517;53;21379;-68
2021/03/02 05:05:56;;;;;;;7.12;2.70;;;3.20;47.90;;;;;;2575584;53;20954;-64
2021/03/02 05:08:22;;;;;;;6.97;2.70;;;3.20;47.90;;;;;;2324038;54;20926;-65
2021/03/02 05:10:49;;;;;;;8.20;3.00;;;3.20;47.90;;;;;;2331177;54;21030;-68
2021/03/02 05:13:15;;;;;;;6.32;2.67;;;3.20;48.00;;;;;;2549013;53;21426;-66
2021/03/02 05:15:42;;;;;;;7.72;3.37;;;3.20;48.00;;;;;;2556450;53;21419;-69
2021/03/02 05:18:09;;;;;;;7.07;3.10;;;3.10;48.00;;;;;;2344769;53;20931;-65
2021/03/02 05:20:35;;;;;;;7.47;2.80;;;3.10;48.00;;;;;;2344131;54;20975;-66
2021/03/02 05:23:02;;;;;;;7.68;3.67;;;3.10;48.00;;;;;;2560034;53;20958;-66
2021/03/02 05:25:32;;;;;;;7.65;2.90;;;3.10;48.00;;;;;;2564950;53;21776;-66
2021/03/02 05:27:59;;;;;;;5.43;2.45;;;3.10;48.00;;;;;;2589356;53;20974;-65
2021/03/02 05:30:28;;;;;;;7.50;2.95;;;3.10;48.60;;;;;;2343780;54;20998;-66
2021/03/02 05:32:54;;;;;;;5.93;3.08;;;3.10;48.00;;;;;;2343526;54;20938;-65
2021/03/02 05:35:20;;;;;;;7.10;3.33;;;3.00;47.90;;;;;;2344246;54;21049;-66
2021/03/02 05:37:47;;;;;;;8.60;3.50;;;3.00;48.00;;;;;;2572001;53;21038;-65
2021/03/02 05:40:14;;;;;;;7.53;3.22;;;3.00;48.10;;;;;;2574543;53;20923;-66
2021/03/02 05:42:42;;;;;;;7.22;3.90;;;3.00;48.70;;;;;;2343543;54;20939;-65
2021/03/02 05:45:09;;;;;;;7.90;3.97;;;3.00;48.10;;;;;;2571394;53;21014;-67
2021/03/02 05:47:35;;;;;;;9.82;4.57;;;3.00;48.20;;;;;;2335182;54;20984;-69
2021/03/02 05:50:02;;;;;;;9.18;4.10;;;3.00;48.20;;;;;;2317719;54;21006;-66
2021/03/02 05:52:30;;;;;;;8.95;3.80;;;2.90;48.20;;;;;;2344285;54;20950;-67
2021/03/02 05:55:00;;;;;;;8.00;3.35;;;2.90;48.30;;;;;;2590182;53;20927;-67
2021/03/02 05:57:27;;;;;;;8.70;3.70;;;3.00;48.40;;;;;;2590843;53;20919;-67
2021/03/02 05:59:54;;;;;;;7.65;3.53;;;2.90;48.30;;;;;;2561211;53;20994;-66
2021/03/02 06:02:22;;;;;;;8.07;3.53;;;2.90;48.40;;;;;;2590061;53;21010;-66
2021/03/02 06:04:49;;;;;;;7.80;3.75;;;2.90;48.40;;;;;;2344082;54;20982;-67
2021/03/02 06:07:18;;;;;;;10.55;3.95;;;2.90;48.40;;;;;;2590021;53;20955;-68
2021/03/02 06:09:45;;;;;;;7.12;3.22;;;2.90;48.60;;;;;;2326666;54;20965;-68
2021/03/02 06:12:12;;;;;;;9.48;4.20;;;2.90;48.50;;;;;;2577703;53;21557;-69
2021/03/02 06:14:38;;;;;;;9.38;4.00;;;2.90;48.60;;;;;;2571889;53;20923;-69
2021/03/02 06:17:05;;;;;;;9.20;3.90;;;3.00;48.70;;;;;;2568206;53;21060;-69
2021/03/02 06:19:45;;;;;;;7.55;3.05;;;3.00;48.70;;;;;;2342479;54;21497;-67
2021/03/02 06:29:07;;;;;;;7.37;3.75;;;2.90;48.70;;;;;;2565616;53;21859;-66
2021/03/02 06:31:44;;;;;;;6.85;3.05;;;3.00;48.90;;;;;;2590145;53;21014;-67
2021/03/02 06:34:23;;;;;;;6.78;3.12;;;3.00;48.40;;;;;;2336416;54;21062;-66
2021/03/02 06:37:08;;;;;;;6.40;3.10;;;3.00;48.40;;;;;;2330417;54;21663;-64
2021/03/02 06:39:36;;;;;;;6.07;3.00;;;3.00;48.70;;;;;;2342659;54;20906;-67
2021/03/02 06:42:22;;;;;;;7.68;3.58;;;3.00;48.60;;;;;;2589168;53;20966;-66
2021/03/02 06:44:52;;;;;;;7.65;3.28;;;3.00;48.90;;;;;;2342821;54;20950;-68
2021/03/02 06:47:39;;;;;;;8.77;3.35;;;2.90;48.70;;;;;;2337455;54;20985;-69
2021/03/02 06:50:39;;;;;;;8.35;3.70;;;3.00;49.00;;;;;;2577042;53;20924;-68
2021/03/02 06:53:09;;;;;;;7.97;4.00;;;3.00;49.20;;;;;;2574735;53;20962;-66
2021/03/02 06:55:37;;;;;;;9.25;4.18;;;3.00;48.90;;;;;;2335156;54;21683;-66
2021/03/02 06:58:17;;;;;;;9.00;4.57;;;3.00;49.60;;;;;;2557139;53;20984;-67
2021/03/02 07:00:50;;;;;;;8.85;3.97;;;3.10;49.40;;;;;;2337942;54;21255;-66
2021/03/02 07:03:21;;;;;;;9.68;5.12;;;3.10;49.40;;;;;;2336336;54;21014;-68
2021/03/02 07:05:49;;;;;;;9.45;4.87;;;3.10;49.40;;;;;;2572372;53;21006;-68
2021/03/02 07:08:16;;;;;;;84.55;23.85;;;3.10;49.40;;;;;;2333160;54;20969;-67
2021/03/02 07:10:42;;;;;;;50.28;17.95;;;3.20;49.60;;;;;;2564527;52;20964;-67
2021/03/02 07:13:13;;;;;;;37.08;13.40;;;3.20;49.70;;;;;;2567160;53;20966;-66
2021/03/02 07:15:41;;;;;;;33.97;12.40;;;3.30;50.00;;;;;;2338946;54;21423;-65
2021/03/02 07:18:09;;;;;;;40.38;14.63;;;3.30;49.90;;;;;;2343363;54;21028;-71
2021/03/02 07:20:36;;;;;;;26.48;10.73;;;3.40;50.00;;;;;;2324984;54;20941;-68
2021/03/02 07:23:02;;;;;;;24.42;9.98;;;3.40;50.00;;;;;;2342778;54;21022;-67
2021/03/02 07:25:29;;;;;;;21.05;9.57;;;3.50;50.10;;;;;;2562745;53;21070;-70
2021/03/02 07:27:56;;;;;;;28.70;11.70;;;3.60;50.20;;;;;;2343298;54;21946;-69
2021/03/02 07:30:25;;;;;;;23.27;10.90;;;3.60;50.30;;;;;;2344074;54;20919;-70
2021/03/02 07:32:52;;;;;;;21.77;10.07;;;3.70;50.40;;;;;;2343056;54;20967;-66
2021/03/02 07:35:21;;;;;;;20.30;10.27;;;3.70;50.40;;;;;;2333231;54;21395;-69
2021/03/02 07:37:48;;;;;;;20.62;10.18;;;3.80;50.60;;;;;;2325078;54;21486;-64
2021/03/02 07:40:17;;;;;;;23.58;10.85;;;3.90;50.60;;;;;;2334073;54;21424;-65
2021/03/02 07:42:43;;;;;;;20.17;10.48;;;4.00;50.90;;;;;;2343328;54;20902;-67
2021/03/02 07:45:14;;;;;;;21.90;10.60;;;4.10;51.00;;;;;;2335003;54;21916;-68
2021/03/02 07:47:57;;;;;;;18.37;8.80;;;4.20;51.10;;;;;;2580939;53;20951;-68
2021/03/02 07:50:31;;;;;;;17.15;8.88;;;4.30;51.20;;;;;;2343957;54;21046;-67
2021/03/02 07:53:19;;;;;;;13.85;5.65;;;4.40;51.50;;;;;;2343488;54;20927;-66
2021/03/02 07:56:15;;;;;;;10.63;5.25;;;4.50;51.90;;;;;;2343061;54;21026;-68
2021/03/02 07:58:48;;;;;;;11.30;4.87;;;4.60;51.70;;;;;;2590220;53;21538;-69
2021/03/02 08:01:21;;;;;;;9.13;4.60;;;4.70;51.70;;;;;;2342976;54;20930;-67
2021/03/02 08:03:48;;;;;;;8.38;4.72;;;4.90;52.00;;;;;;2326649;54;21514;-67
2021/03/02 08:06:50;;;;;;;9.18;4.40;;;5.00;51.90;;;;;;2563740;53;20926;-68
2021/03/02 08:09:50;;;;;;;8.75;4.32;;;5.10;52.50;;;;;;2590245;53;20947;-64
2021/03/02 08:16:48;;;;;;;7.37;3.42;;;5.30;52.50;;;;;;2343590;54;20939;-69
2021/03/02 08:19:41;;;;;;;10.32;4.10;;;5.50;52.70;;;;;;2587841;53;21388;-67
2021/03/02 08:22:49;;;;;;;8.05;3.95;;;5.80;52.30;;;;;;2328595;54;21030;-69
2021/03/02 08:25:51;;;;;;;8.95;3.72;;;5.90;52.70;;;;;;2333662;54;20970;-68
2021/03/02 08:28:18;;;;;;;6.70;3.45;;;6.10;52.70;;;;;;2339303;54;22298;-69
2021/03/02 08:30:44;;;;;;;8.18;4.15;;;6.20;52.20;;;;;;2589568;53;20947;-67
2021/03/02 08:33:18;;;;;;;7.53;4.12;;;6.40;52.40;;;;;;2343238;54;20919;-67
2021/03/02 08:35:44;;;;;;;8.15;4.00;;;6.50;52.50;;;;;;2562541;53;21041;-66
2021/03/02 08:38:12;;;;;;;10.27;4.80;;;6.70;52.70;;;;;;2336203;54;20966;-66
2021/03/02 08:40:43;;;;;;;11.00;5.03;;;6.80;53.20;;;;;;2323319;54;20958;-67
2021/03/02 08:43:21;;;;;;;8.65;5.03;;;7.10;54.30;;;;;;2327773;54;21669;-67
2021/03/02 08:45:51;;;;;;;9.10;5.18;;;7.50;55.50;;;;;;2343095;54;21400;-66
2021/03/02 08:48:30;;;;;;;9.38;5.07;;;8.00;56.50;;;;;;2337614;54;20950;-66
2021/03/02 08:51:06;;;;;;;8.93;5.50;;;8.50;57.30;;;;;;2329984;54;20950;-66
2021/03/02 08:53:49;;;;;;;9.55;5.90;;;9.20;57.60;;;;;;2589250;53;20934;-67
2021/03/02 08:56:26;;;;;;;9.95;5.72;;;9.80;57.60;;;;;;2344443;54;20958;-70
2021/03/02 08:59:08;;;;;;;8.00;5.15;;;10.40;56.60;;;;;;2343809;54;21670;-68
2021/03/02 09:01:40;;;;;;;8.75;5.43;;;11.00;56.60;;;;;;2344281;54;21360;-66
2021/03/02 09:04:20;;;;;;;9.30;5.25;;;11.60;56.50;;;;;;2324587;55;21026;-70
2021/03/02 09:06:49;;;;;;;7.97;5.00;;;12.20;55.90;;;;;;2339424;54;20934;-67
2021/03/02 09:09:24;;;;;;;8.32;5.37;;;12.70;55.20;;;;;;2334235;54;21434;-67
2021/03/02 09:11:55;;;;;;;9.52;5.78;;;13.10;53.90;;;;;;2322549;54;20974;-66
2021/03/02 09:14:33;;;;;;;8.82;4.90;;;13.30;53.10;;;;;;2344281;54;21083;-69
2021/03/02 09:17:06;;;;;;;8.30;5.22;;;13.50;52.00;;;;;;2344488;54;20998;-67
2021/03/02 09:19:39;;;;;;;7.75;4.47;;;13.70;51.10;;;;;;2343879;54;20934;-67
2021/03/02 09:22:09;;;;;;;9.20;4.72;;;13.70;50.30;;;;;;2343740;54;20943;-67
2021/03/02 09:24:53;;;;;;;8.48;5.50;;;13.70;49.80;;;;;;2324678;55;21897;-69
2021/03/02 09:27:20;;;;;;;9.07;5.43;;;13.70;49.60;;;;;;2343642;54;20982;-67
2021/03/02 09:29:51;;;;;;;7.93;5.15;;;13.80;50.00;;;;;;2329734;54;20926;-67
2021/03/02 09:32:29;;;;;;;8.57;4.97;;;13.80;50.20;;;;;;2569734;53;20932;-67
2021/03/02 09:35:31;;;;;;;7.00;4.40;;;14.00;50.60;;;;;;2318324;54;20973;-70
2021/03/02 09:37:58;;;;;;;8.18;4.70;;;14.10;51.10;;;;;;2343701;54;21002;-72
2021/03/02 09:40:40;;;;;;;7.15;4.37;;;14.50;51.60;;;;;;2574488;53;21045;-67
2021/03/02 09:43:06;;;;;;;9.00;5.37;;;14.90;51.60;;;;;;2563393;53;21658;-67
2021/03/02 09:45:35;;;;;;;9.02;5.20;;;15.30;51.60;;;;;;2333067;54;20935;-67
2021/03/02 09:48:06;;;;;;;8.20;5.20;;;15.70;51.60;;;;;;2331813;54;20958;-68
2021/03/02 09:50:38;;;;;;;8.35;5.35;;;16.10;51.40;;;;;;2334156;54;20995;-67
2021/03/02 09:53:14;;;;;;;8.07;5.18;;;16.60;51.20;;;;;;2344872;54;21038;-67
2021/03/02 09:55:45;;;;;;;8.15;4.82;;;17.00;50.80;;;;;;2343335;54;20946;-67
2021/03/02 09:58:19;;;;;;;9.00;5.30;;;17.30;51.00;;;;;;2568549;53;21009;-67
2021/03/02 10:00:49;;;;;;;8.00;5.07;;;17.70;50.30;;;;;;2333933;53;20986;-69
2021/03/02 10:03:37;;;;;;;8.02;4.95;;;18.00;50.10;;;;;;2331178;54;20994;-67
2021/03/02 10:06:05;;;;;;;8.30;4.68;;;18.30;49.10;;;;;;2577033;53;20955;-68
2021/03/02 10:08:50;;;;;;;8.32;4.15;;;18.60;49.70;;;;;;2342718;54;21009;-70
2021/03/02 10:11:20;;;;;;;6.60;4.40;;;18.80;49.30;;;;;;2344437;54;20950;-67
2021/03/02 10:13:51;;;;;;;7.00;4.12;;;19.10;49.00;;;;;;2342989;54;21756;-66
2021/03/02 10:16:30;;;;;;;8.38;4.55;;;19.30;48.70;;;;;;2343330;54;20946;-68
2021/03/02 10:19:23;;;;;;;7.12;4.78;;;19.60;48.00;;;;;;2589068;53;20978;-71
2021/03/02 10:21:53;;;;;;;6.90;4.45;;;19.80;47.30;;;;;;2586562;53;20899;-68
2021/03/02 10:24:35;;;;;;;7.37;4.45;;;19.90;47.60;;;;;;2321791;54;20989;-71
2021/03/02 10:27:18;;;;;;;9.00;4.93;;;20.10;47.00;;;;;;2323982;54;21437;-68
2021/03/02 10:29:46;;;;;;;7.65;4.62;;;20.30;46.50;;;;;;2342734;54;21010;-68
2021/03/02 10:32:12;;;;;;;6.70;4.07;;;20.50;47.50;;;;;;2588528;53;20954;-70
2021/03/02 10:34:40;;;;;;;7.05;4.12;;;20.60;47.50;;;;;;2589309;53;20934;-70
2021/03/02 10:37:09;;;;;;;7.18;4.22;;;20.90;47.60;;;;;;2321048;54;21014;-67
2021/03/02 10:39:36;;;;;;;6.97;4.75;;;21.10;47.70;;;;;;2575420;53;20970;-70
2021/03/02 10:42:03;;;;;;;8.27;4.30;;;21.40;47.40;;;;;;2331769;54;20990;-66
2021/03/02 10:44:30;;;;;;;6.40;4.43;;;21.60;46.90;;;;;;2328782;54;20926;-67
2021/03/02 10:46:56;;;;;;;7.62;4.57;;;21.80;46.30;;;;;;2574111;53;21045;-65
2021/03/02 10:49:22;;;;;;;6.15;4.60;;;21.90;45.80;;;;;;2330196;54;21811;-68
2021/03/02 10:51:50;;;;;;;7.75;5.03;;;22.10;45.30;;;;;;2332056;53;20912;-66
2021/03/02 10:54:16;;;;;;;7.10;4.72;;;22.20;44.80;;;;;;2338868;54;20978;-68
2021/03/02 10:56:43;;;;;;;8.13;4.53;;;22.20;44.30;;;;;;2327303;54;21006;-66
2021/03/02 10:59:09;;;;;;;6.78;4.75;;;22.30;43.90;;;;;;2343185;54;20994;-68
2021/03/02 11:01:36;;;;;;;7.25;4.65;;;22.30;43.60;;;;;;2323274;54;21006;-66
2021/03/02 11:04:04;;;;;;;7.45;5.05;;;22.30;43.20;;;;;;2342680;54;20942;-70
2021/03/02 11:06:46;;;;;;;12.10;5.65;;;22.30;42.80;;;;;;2318901;54;21005;-69
2021/03/02 11:09:14;;;;;;;7.37;5.60;;;22.20;41.60;;;;;;2328429;54;21045;-69
2021/03/02 11:11:40;;;;;;;7.47;4.68;;;22.20;42.50;;;;;;2323883;54;21730;-66
2021/03/02 11:14:07;;;;;;;8.13;5.28;;;22.20;42.20;;;;;;2559770;53;21062;-68
2021/03/02 11:16:34;;;;;;;7.93;5.03;;;22.20;41.90;;;;;;2328868;54;21038;-65
2021/03/02 11:19:01;;;;;;;7.82;5.28;;;22.20;41.50;;;;;;2344325;53;21934;-68
2021/03/02 11:21:27;;;;;;;9.23;5.20;;;22.10;41.60;;;;;;2344464;54;21383;-66
2021/03/02 11:23:53;;;;;;;8.00;5.05;;;22.10;40.90;;;;;;2589173;53;20978;-66
2021/03/02 11:26:20;;;;;;;6.85;4.47;;;22.00;40.70;;;;;;2328093;54;21767;-66
2021/03/02 11:28:46;;;;;;;7.45;4.65;;;22.00;40.60;;;;;;2330698;54;21021;-67
2021/03/02 11:31:13;;;;;;;8.38;5.07;;;22.00;40.60;;;;;;2323681;54;20979;-67
2021/03/02 11:33:42;;;;;;;7.65;4.07;;;22.00;40.60;;;;;;2542951;54;20986;-67
2021/03/02 11:36:09;;;;;;;7.72;4.43;;;22.00;40.70;;;;;;2319800;54;21022;-66
2021/03/02 11:38:36;;;;;;;7.47;4.72;;;22.10;40.80;;;;;;2336274;54;20935;-66
2021/03/02 11:41:03;;;;;;;7.47;4.80;;;22.00;40.90;;;;;;2331984;54;21014;-65
2021/03/02 11:43:29;;;;;;;8.88;4.97;;;22.10;41.00;;;;;;2324330;54;20974;-66
2021/03/02 11:45:56;;;;;;;8.20;4.68;;;22.20;40.90;;;;;;2560676;53;20951;-68
2021/03/02 11:48:25;;;;;;;9.45;5.78;;;22.30;40.70;;;;;;2581163;53;20974;-71
2021/03/02 11:50:59;;;;;;;9.98;5.75;;;22.40;40.40;;;;;;2328222;53;20954;-71
2021/03/02 11:53:25;;;;;;;9.63;6.15;;;22.50;40.30;;;;;;2560226;53;21325;-68
2021/03/02 11:55:51;;;;;;;10.18;6.00;;;22.60;40.30;;;;;;2568911;53;20977;-69
2021/03/02 11:58:17;;;;;;;8.07;5.05;;;22.70;40.20;;;;;;2574945;53;20922;-66
2021/03/02 12:00:44;;;;;;;8.75;5.47;;;22.80;40.20;;;;;;2342165;54;21400;-69
2021/03/02 12:03:17;;;;;;;7.35;4.60;;;23.00;39.90;;;;;;2336546;54;21382;-67
2021/03/02 12:05:43;;;;;;;7.78;5.10;;;23.10;39.70;;;;;;2574294;53;20923;-67
2021/03/02 12:08:11;;;;;;;7.05;4.70;;;23.10;39.20;;;;;;2589971;53;20927;-68
2021/03/02 12:10:37;;;;;;;8.25;5.07;;;23.20;39.00;;;;;;2341798;54;21022;-69
2021/03/02 12:13:05;;;;;;;10.38;5.55;;;23.20;38.80;;;;;;2589344;53;20945;-70
2021/03/02 12:15:31;;;;;;;8.80;5.60;;;23.10;38.40;;;;;;2341048;54;21061;-68
2021/03/02 12:17:58;;;;;;;9.93;6.28;;;23.10;38.10;;;;;;2328321;54;22017;-68
2021/03/02 12:20:24;;;;;;;11.68;5.78;;;23.00;37.80;;;;;;2337556;54;20978;-69
2021/03/02 12:22:51;;;;;;;9.88;5.65;;;22.90;37.50;;;;;;2590140;53;21709;-71
2021/03/02 12:25:18;;;;;;;10.23;5.30;;;22.70;37.10;;;;;;2344060;54;20930;-72
2021/03/02 12:27:47;;;;;;;9.80;5.55;;;22.70;37.20;;;;;;2584786;53;20946;-71
2021/03/02 12:30:15;;;;;;;12.00;6.20;;;22.60;37.10;;;;;;2555863;53;20922;-71
2021/03/02 12:32:42;;;;;;;8.85;5.00;;;22.60;37.20;;;;;;2563310;52;21069;-71
2021/03/02 12:35:17;;;;;;;7.93;4.97;;;22.60;37.40;;;;;;2323983;54;21365;-67
2021/03/02 12:37:43;;;;;;;8.73;5.40;;;22.60;36.80;;;;;;2556171;53;20930;-69
2021/03/02 12:40:13;;;;;;;10.05;5.03;;;22.50;36.90;;;;;;2337864;54;21475;-68
2021/03/02 12:42:40;;;;;;;7.65;5.18;;;22.40;36.80;;;;;;2584493;53;21751;-70
2021/03/02 12:45:07;;;;;;;9.25;5.30;;;22.40;36.70;;;;;;2555395;53;21022;-70
2021/03/02 12:47:34;;;;;;;9.23;5.50;;;22.30;36.70;;;;;;2322752;54;21831;-71
2021/03/02 12:50:08;;;;;;;11.07;5.22;;;22.30;36.70;;;;;;2559280;52;20946;-73
2021/03/02 12:52:36;;;;;;;9.88;5.82;;;22.20;36.40;;;;;;2587032;52;20997;-68
2021/03/02 12:55:09;;;;;;;10.52;5.90;;;22.20;37.00;;;;;;2327306;54;21158;-70
2021/03/02 12:57:36;;;;;;;13.13;5.85;;;22.30;37.10;;;;;;2574890;53;21351;-68
2021/03/02 13:00:06;;;;;;;10.48;5.82;;;22.30;37.20;;;;;;2334971;54;21273;-69
2021/03/02 13:02:32;;;;;;;10.40;6.68;;;22.30;37.00;;;;;;2554716;53;20909;-69
2021/03/02 13:04:59;;;;;;;9.25;5.97;;;22.40;37.40;;;;;;2554305;53;21858;-70
2021/03/02 13:07:28;;;;;;;8.50;5.47;;;22.40;37.90;;;;;;2553250;53;21022;-71
2021/03/02 13:09:56;;;;;;;8.82;5.30;;;22.40;37.20;;;;;;2326175;54;21019;-69
2021/03/02 13:12:23;;;;;;;9.13;5.50;;;22.50;37.10;;;;;;2554396;53;20965;-66
2021/03/02 13:14:49;;;;;;;10.70;5.95;;;22.50;37.00;;;;;;2318423;54;20954;-68
2021/03/02 13:17:18;;;;;;;10.43;5.72;;;22.50;36.70;;;;;;2319047;54;20948;-67
2021/03/02 13:19:47;;;;;;;12.65;6.43;;;22.50;36.50;;;;;;2321395;54;21659;-70
2021/03/02 13:22:15;;;;;;;9.27;5.95;;;22.50;36.50;;;;;;2554147;53;21400;-67
2021/03/02 13:24:41;;;;;;;8.68;5.57;;;22.50;36.20;;;;;;2320771;54;20974;-67